Sardis City, Alabama
Current Conditions -  °F | °C
As of 1:55 AM on Saturday 20 Dec 2014 (Local Time) from K8A0 Reporting Station
Drizzle Drizzle  
Wind Chill:   Ceiling: 9000
Heat Index:   Visibility: 10mi
Dew Point:   Wind: 3mph
Humidity: 100%   Direction: 30°NNE
Pressure: 30.12"   Gusts: NA
Location:  34.1534°N, 86.1537°W
Report Text: K8A0 200755Z AUTO 03003KT 10SM -DZ OVC090 03/03 A3012 RMK AO2
Loading
Personal Weather Stations






























Interactive Weather Map New forecast layout! Learn more

10-Day Weather Forecast

Advertisements
Track Severe Weather on mobile